Ubc Bremen — P3ZA7 — position and weather

sailwx.info

Track history (hours):
 
Tides and Currents Weather Stations Pressure Air Temp Water Temp Dewpoint Dewpoint Depression Visibility Wind Speed Wind Dir Waves Ship Positions

Ubc Bremen

Last reported at 2016-Oct-01 15:28 UTC. Time now 2016-Oct-01 18:58 UTC.
Position N 31°60' W 080°40'.

Length 154 m; draft 8.8 m.

Type: Cargo ship. MMSI: 21260200.

Date/timePositionNaut miles runAvg speedWind from/ knotsBaromVisibWave heightAir tempDewpointWater temp
2016-Oct-01 15:28N 31°60' W 080°40'0 0.0
2016-Oct-01 14:32N 31°60' W 080°40'0 0.0
2016-Oct-01 13:29N 31°60' W 080°40'  
2016-Sep-26 08:33N 09°44' W 079°43'37 6.2
2016-Sep-26 02:33N 09°08' W 079°48'14 2.7
2016-Sep-25 21:25N 09°00' W 079°36'0 0.0
2016-Sep-25 17:13N 09°00' W 079°36'0 0.0
2016-Sep-25 16:25N 09°00' W 079°36'1 1.1
2016-Sep-25 15:28N 08°60' W 079°35'2 2.1
2016-Sep-25 14:32N 08°58' W 079°35'7 3.3
2016-Sep-25 12:29N 08°53' W 079°30'0 0.0
2016-Sep-25 11:32N 08°53' W 079°30'0 0.0
2016-Sep-25 07:28N 08°53' W 079°30'0 0.0
2016-Sep-24 22:33N 08°53' W 079°30'0 0.0
2016-Sep-24 21:06N 08°53' W 079°30'0 0.0
2016-Sep-24 19:29N 08°53' W 079°30'0 0.0
2016-Sep-24 18:07N 08°53' W 079°30'0 0.0
2016-Sep-24 17:16N 08°53' W 079°30'0 0.0
2016-Sep-24 16:28N 08°53' W 079°30'0 0.0
2016-Sep-24 14:22N 08°53' W 079°30'0 0.0
2016-Sep-24 09:21N 08°53' W 079°30'0 0.0
2016-Sep-24 03:28N 08°53' W 079°30'0 0.0
2016-Sep-24 02:22N 08°53' W 079°30'0 0.0
2016-Sep-24 01:25N 08°53' W 079°30'0 0.0
2016-Sep-23 19:13N 08°53' W 079°30'0 0.0
2016-Sep-23 17:25N 08°53' W 079°30'0 0.0
2016-Sep-23 16:21N 08°53' W 079°30'0 0.0
2016-Sep-23 15:26N 08°53' W 079°30'0 0.0
2016-Sep-23 06:14N 08°53' W 079°30'0 0.0
2016-Sep-23 04:30N 08°53' W 079°30'0 0.0
2016-Sep-23 03:29N 08°53' W 079°30'0 0.0
2016-Sep-23 02:26N 08°53' W 079°30'0 0.0
2016-Sep-23 00:32N 08°53' W 079°30'0 0.0
2016-Sep-22 23:05N 08°53' W 079°30'0 0.0
2016-Sep-22 20:31N 08°53' W 079°30'0 0.0
2016-Sep-22 04:31N 08°53' W 079°30'0 0.0
2016-Sep-22 03:09N 08°53' W 079°30'0 0.0
2016-Sep-22 00:25N 08°53' W 079°30'0 0.1
2016-Sep-21 23:33N 08°53' W 079°30'0 0.0
2016-Sep-21 22:27N 08°53' W 079°30'16 5.5
2016-Sep-21 19:32N 08°38' W 079°23'  
Track history (hours):
 
Tides and Currents Weather Stations Pressure Air Temp Water Temp Dewpoint Dewpoint Depression Visibility Wind Speed Wind Dir Waves Ship Positions

Ubc Bremen

Last reported at 2016-Oct-01 15:28 UTC. Time now 2016-Oct-01 18:58 UTC.
Position N 31°60' W 080°40'.

Length 154 m; draft 8.8 m.

Type: Cargo ship. MMSI: 21260200.

Date/timePositionNaut miles runAvg speedWind from/ knotsBaromVisibWave heightAir tempDewpointWater temp
2016-Oct-01 15:28N 31°60' W 080°40'0 0.0
2016-Oct-01 14:32N 31°60' W 080°40'0 0.0
2016-Oct-01 13:29N 31°60' W 080°40'  
2016-Sep-26 08:33N 09°44' W 079°43'37 6.2
2016-Sep-26 02:33N 09°08' W 079°48'14 2.7
2016-Sep-25 21:25N 09°00' W 079°36'0 0.0
2016-Sep-25 17:13N 09°00' W 079°36'0 0.0
2016-Sep-25 16:25N 09°00' W 079°36'1 1.1
2016-Sep-25 15:28N 08°60' W 079°35'2 2.1
2016-Sep-25 14:32N 08°58' W 079°35'7 3.3
2016-Sep-25 12:29N 08°53' W 079°30'0 0.0
2016-Sep-25 11:32N 08°53' W 079°30'0 0.0
2016-Sep-25 07:28N 08°53' W 079°30'0 0.0
2016-Sep-24 22:33N 08°53' W 079°30'0 0.0
2016-Sep-24 21:06N 08°53' W 079°30'0 0.0
2016-Sep-24 19:29N 08°53' W 079°30'0 0.0
2016-Sep-24 18:07N 08°53' W 079°30'0 0.0
2016-Sep-24 17:16N 08°53' W 079°30'0 0.0
2016-Sep-24 16:28N 08°53' W 079°30'0 0.0
2016-Sep-24 14:22N 08°53' W 079°30'0 0.0
2016-Sep-24 09:21N 08°53' W 079°30'0 0.0
2016-Sep-24 03:28N 08°53' W 079°30'0 0.0
2016-Sep-24 02:22N 08°53' W 079°30'0 0.0
2016-Sep-24 01:25N 08°53' W 079°30'0 0.0
2016-Sep-23 19:13N 08°53' W 079°30'0 0.0
2016-Sep-23 17:25N 08°53' W 079°30'0 0.0
2016-Sep-23 16:21N 08°53' W 079°30'0 0.0
2016-Sep-23 15:26N 08°53' W 079°30'0 0.0
2016-Sep-23 06:14N 08°53' W 079°30'0 0.0
2016-Sep-23 04:30N 08°53' W 079°30'0 0.0
2016-Sep-23 03:29N 08°53' W 079°30'0 0.0
2016-Sep-23 02:26N 08°53' W 079°30'0 0.0
2016-Sep-23 00:32N 08°53' W 079°30'0 0.0
2016-Sep-22 23:05N 08°53' W 079°30'0 0.0
2016-Sep-22 20:31N 08°53' W 079°30'0 0.0
2016-Sep-22 04:31N 08°53' W 079°30'0 0.0
2016-Sep-22 03:09N 08°53' W 079°30'0 0.0
2016-Sep-22 00:25N 08°53' W 079°30'0 0.1
2016-Sep-21 23:33N 08°53' W 079°30'0 0.0
2016-Sep-21 22:27N 08°53' W 079°30'16 5.5
2016-Sep-21 19:32N 08°38' W 079°23'  

Dump ship's entire track history